Time;durP1;ratioP1;P1;durP2;ratioP2;P2;SDS_P1;SDS_P2;PMS_P1;PMS_P2;Temp;Humidity;BMP_temperature;BMP_pressure;BME280_temperature;BME280_humidity;BME280_pressure;Samples;Min_cycle;Max_cycle;Signal;HPM_P1;HPM_P2
2020/12/15 17:16:20;;;;;;;7.00;2.22;;;18.30;54.10;;;;;;5048445;28;20911;-68
2020/12/15 17:18:47;;;;;;;8.88;2.70;;;18.60;53.10;;;;;;5044132;28;20073;-68
2020/12/15 17:21:14;;;;;;;6.85;2.58;;;18.50;53.20;;;;;;5042693;28;20049;-68
2020/12/15 17:23:41;;;;;;;9.48;3.75;;;18.40;53.40;;;;;;5046014;28;20053;-67
2020/12/15 17:26:08;;;;;;;36.95;14.25;;;18.30;53.60;;;;;;5045105;28;20498;-68
2020/12/15 17:28:35;;;;;;;105.28;48.65;;;18.20;53.90;;;;;;5044884;28;20515;-68
2020/12/15 17:31:06;;;;;;;294.10;174.88;;;18.20;54.40;;;;;;5045617;28;20053;-69
2020/12/15 17:33:32;;;;;;;;;;;18.20;54.80;;;;;;5045291;28;20045;-69
2020/12/15 17:36:02;;;;;;;77.32;43.05;;;18.20;55.10;;;;;;5042867;28;19921;-66
2020/12/15 17:38:29;;;;;;;29.23;14.15;;;18.10;55.30;;;;;;5022425;28;20430;-71
2020/12/15 17:40:55;;;;;;;23.70;9.48;;;18.10;55.40;;;;;;5025746;28;20050;-70
2020/12/15 17:43:22;;;;;;;17.33;10.13;;;18.00;55.50;;;;;;5025202;28;20144;-70
2020/12/15 17:45:49;;;;;;;16.20;5.95;;;18.00;55.60;;;;;;5023851;28;20069;-68
2020/12/15 17:48:15;;;;;;;12.80;6.05;;;18.00;55.70;;;;;;5024085;28;20375;-69
2020/12/15 17:50:43;;;;;;;11.63;5.05;;;18.00;56.00;;;;;;5039208;28;20064;-69
2020/12/15 17:53:09;;;;;;;7.88;4.10;;;17.90;56.10;;;;;;5027423;28;20317;-70
2020/12/15 17:55:36;;;;;;;9.40;4.85;;;17.90;56.20;;;;;;5029361;28;20141;-69
2020/12/15 17:58:03;;;;;;;11.75;4.57;;;17.90;56.40;;;;;;5025793;28;20064;-68
2020/12/15 18:00:29;;;;;;;11.55;4.65;;;17.90;56.50;;;;;;5024930;28;20137;-67
2020/12/15 18:02:56;;;;;;;15.88;5.82;;;17.80;56.60;;;;;;5024126;28;20046;-72
2020/12/15 18:05:22;;;;;;;8.55;4.43;;;17.80;56.70;;;;;;5024721;28;20634;-69
2020/12/15 18:07:49;;;;;;;9.15;4.40;;;17.90;56.80;;;;;;5025586;28;20049;-66
2020/12/15 18:10:15;;;;;;;9.77;4.50;;;17.90;56.80;;;;;;5025146;28;20551;-68
2020/12/15 18:12:43;;;;;;;9.75;4.53;;;17.80;56.60;;;;;;5025595;28;20049;-67
2020/12/15 18:15:14;;;;;;;11.23;4.57;;;17.80;56.50;;;;;;5025098;28;20065;-73
2020/12/15 18:17:45;;;;;;;10.40;4.15;;;17.80;56.50;;;;;;5025131;28;20073;-71
2020/12/15 18:20:17;;;;;;;9.60;4.45;;;17.80;56.60;;;;;;5025937;28;20042;-72
2020/12/15 18:22:48;;;;;;;11.93;4.85;;;17.80;56.60;;;;;;5025428;28;20118;-72
2020/12/15 18:25:19;;;;;;;7.65;4.20;;;17.80;56.40;;;;;;5023953;28;20057;-65
2020/12/15 18:27:51;;;;;;;10.82;4.75;;;17.80;56.40;;;;;;5011391;28;20537;-72
2020/12/15 18:30:23;;;;;;;14.48;4.82;;;17.80;56.40;;;;;;5013900;28;20157;-72
2020/12/15 18:32:54;;;;;;;9.27;5.50;;;17.70;56.50;;;;;;5013825;28;20064;-72
2020/12/15 18:35:25;;;;;;;12.90;4.35;;;17.70;56.40;;;;;;5011425;28;20133;-71
2020/12/15 18:37:56;;;;;;;9.25;4.80;;;17.70;56.40;;;;;;5009752;28;20057;-72
2020/12/15 18:40:28;;;;;;;12.77;4.72;;;17.80;56.40;;;;;;5012310;28;20054;-69
2020/12/15 18:42:59;;;;;;;12.43;5.40;;;17.70;56.30;;;;;;5012539;28;20049;-72
2020/12/15 18:45:30;;;;;;;12.15;5.18;;;17.80;56.30;;;;;;5011326;28;20556;-70
2020/12/15 18:48:02;;;;;;;9.82;4.88;;;17.80;56.30;;;;;;5011986;28;20422;-72
2020/12/15 18:50:33;;;;;;;10.48;4.93;;;17.70;56.20;;;;;;5010604;28;20061;-66
2020/12/15 18:53:04;;;;;;;12.25;5.60;;;17.70;56.20;;;;;;5011053;28;20077;-65
2020/12/15 18:55:36;;;;;;;12.10;5.13;;;17.70;56.20;;;;;;5010866;28;20058;-67
2020/12/15 18:58:07;;;;;;;12.13;5.20;;;17.70;56.10;;;;;;5009664;28;20046;-66
2020/12/15 19:00:33;;;;;;;10.68;5.40;;;17.60;56.00;;;;;;5010649;28;20385;-65
2020/12/15 19:03:05;;;;;;;13.57;5.57;;;17.70;56.00;;;;;;5011610;28;20049;-68
2020/12/15 19:05:37;;;;;;;12.98;5.78;;;17.70;55.90;;;;;;5011126;28;20465;-73
2020/12/15 19:08:10;;;;;;;9.73;5.40;;;17.70;55.90;;;;;;5012530;28;20054;-74
2020/12/15 19:10:41;;;;;;;11.55;5.30;;;17.70;56.00;;;;;;5011259;28;20376;-65
2020/12/15 19:13:13;;;;;;;10.10;4.93;;;17.60;56.00;;;;;;5007065;28;20081;-66
2020/12/15 19:15:44;;;;;;;10.05;4.85;;;17.60;56.00;;;;;;5006335;28;20061;-69
2020/12/15 19:18:16;;;;;;;13.70;5.90;;;17.50;56.10;;;;;;5008261;28;20050;-67
2020/12/15 19:20:48;;;;;;;10.05;5.18;;;17.50;56.10;;;;;;5007717;28;20065;-65
2020/12/15 19:23:20;;;;;;;13.80;5.72;;;17.40;56.20;;;;;;5007607;28;20433;-68
2020/12/15 19:25:51;;;;;;;10.65;5.03;;;17.30;56.90;;;;;;5007565;28;20089;-64
2020/12/15 19:28:23;;;;;;;15.02;5.38;;;17.30;56.50;;;;;;5012911;28;20054;-66
2020/12/15 19:30:54;;;;;;;10.85;5.15;;;17.30;56.50;;;;;;5010402;28;20065;-69
2020/12/15 19:33:25;;;;;;;12.80;5.15;;;17.20;56.70;;;;;;5010673;28;20057;-69
2020/12/15 19:35:56;;;;;;;8.20;4.47;;;17.20;56.80;;;;;;5012803;28;20069;-77
2020/12/15 19:38:28;;;;;;;10.00;4.50;;;17.30;56.90;;;;;;5010000;28;20057;-73
2020/12/15 19:40:54;;;;;;;8.48;3.92;;;17.40;57.00;;;;;;5009473;28;20132;-71
2020/12/15 19:43:26;;;;;;;11.25;4.45;;;17.60;56.90;;;;;;5008905;28;20411;-70
2020/12/15 19:45:58;;;;;;;10.77;4.50;;;17.70;56.70;;;;;;5006866;28;20627;-71
2020/12/15 19:48:29;;;;;;;9.10;3.90;;;17.80;56.60;;;;;;5010082;28;20042;-72
2020/12/15 19:51:01;;;;;;;14.63;4.22;;;17.90;56.50;;;;;;5010594;28;20058;-72
2020/12/15 19:53:33;;;;;;;9.88;4.47;;;18.00;56.30;;;;;;5012746;28;20054;-73
2020/12/15 19:56:04;;;;;;;11.45;4.53;;;18.10;56.10;;;;;;5012842;28;20619;-72
2020/12/15 19:58:35;;;;;;;12.70;3.78;;;18.10;56.00;;;;;;5013410;28;20108;-73
2020/12/15 20:01:02;;;;;;;7.90;3.30;;;18.30;55.90;;;;;;5010519;28;20541;-73
2020/12/15 20:03:34;;;;;;;11.38;4.15;;;18.30;55.80;;;;;;5009552;28;20049;-71
2020/12/15 20:06:05;;;;;;;7.40;3.97;;;18.40;55.60;;;;;;5009454;28;20403;-72
2020/12/15 20:08:36;;;;;;;11.18;3.80;;;18.50;55.60;;;;;;5009391;28;20053;-72
2020/12/15 20:11:12;;;;;;;12.82;3.78;;;18.60;55.40;;;;;;5009526;28;20117;-72
2020/12/15 20:13:45;;;;;;;9.25;4.38;;;18.60;55.30;;;;;;5009768;28;20064;-73
2020/12/15 20:16:20;;;;;;;6.75;4.28;;;18.60;55.10;;;;;;5010457;28;20529;-72
2020/12/15 20:18:51;;;;;;;8.00;4.28;;;18.60;55.00;;;;;;5008007;28;20046;-74
2020/12/15 20:21:23;;;;;;;5.38;4.18;;;18.60;54.90;;;;;;5009027;28;20589;-72
2020/12/15 20:23:55;;;;;;;5.85;3.58;;;18.60;54.80;;;;;;5007804;28;20498;-72
2020/12/15 20:26:26;;;;;;;7.75;3.78;;;18.60;55.30;;;;;;5008706;28;20054;-72
2020/12/15 20:28:57;;;;;;;8.55;4.55;;;18.70;54.60;;;;;;5007503;28;20068;-72
2020/12/15 20:31:29;;;;;;;8.43;4.22;;;18.80;54.60;;;;;;5008606;28;20061;-72
2020/12/15 20:33:57;;;;;;;6.25;3.60;;;18.80;54.40;;;;;;5008307;28;20050;-72
2020/12/15 20:36:28;;;;;;;8.60;4.20;;;18.80;54.30;;;;;;5008618;28;20061;-72
2020/12/15 20:38:59;;;;;;;6.95;3.42;;;18.80;54.20;;;;;;5007472;28;20061;-72
2020/12/15 20:41:30;;;;;;;7.05;3.65;;;18.80;54.10;;;;;;5009703;28;20054;-72
2020/12/15 20:44:02;;;;;;;7.60;3.65;;;18.80;54.00;;;;;;5008611;28;20158;-72
2020/12/15 20:46:32;;;;;;;7.78;3.72;;;18.80;53.90;;;;;;5009445;28;20057;-72
2020/12/15 20:49:04;;;;;;;7.95;3.53;;;18.80;53.80;;;;;;5007456;28;20848;-72
2020/12/15 20:51:36;;;;;;;6.03;3.40;;;18.90;53.80;;;;;;5007669;28;20422;-72
2020/12/15 20:54:02;;;;;;;6.00;3.60;;;19.00;53.90;;;;;;5007014;28;20522;-73
2020/12/15 20:56:33;;;;;;;4.88;2.90;;;19.00;53.70;;;;;;5009028;28;20140;-72
2020/12/15 20:59:05;;;;;;;6.65;3.45;;;19.00;53.60;;;;;;5011243;28;20057;-73
2020/12/15 21:01:36;;;;;;;5.10;3.15;;;19.00;53.50;;;;;;5007314;28;20050;-72
2020/12/15 21:04:04;;;;;;;6.97;3.63;;;19.10;53.60;;;;;;5008560;28;20482;-72
2020/12/15 21:06:35;;;;;;;6.93;3.13;;;19.10;53.50;;;;;;5008785;28;20048;-73
2020/12/15 21:09:08;;;;;;;4.45;2.92;;;19.20;53.40;;;;;;5011056;28;20622;-73
2020/12/15 21:11:40;;;;;;;5.43;3.15;;;19.20;53.30;;;;;;5011763;28;20045;-75
2020/12/15 21:14:06;;;;;;;7.30;4.35;;;19.20;53.20;;;;;;5012848;28;20045;-74
2020/12/15 21:16:37;;;;;;;6.20;3.40;;;19.20;53.10;;;;;;5011302;28;20054;-72
2020/12/15 21:19:09;;;;;;;5.13;2.85;;;19.20;53.10;;;;;;5013771;28;20046;-73
2020/12/15 21:21:35;;;;;;;5.20;2.92;;;19.30;53.00;;;;;;5013355;28;20046;-73
2020/12/15 21:24:02;;;;;;;5.35;3.35;;;19.20;52.90;;;;;;5013010;28;20046;-73
2020/12/15 21:26:34;;;;;;;7.35;3.95;;;19.30;52.90;;;;;;5013187;28;20054;-77
2020/12/15 21:29:06;;;;;;;4.82;3.33;;;19.30;52.70;;;;;;5012493;28;20057;-73
2020/12/15 21:31:32;;;;;;;6.25;3.58;;;19.30;52.70;;;;;;5010583;28;20537;-72
2020/12/15 21:34:01;;;;;;;6.88;3.63;;;19.30;52.70;;;;;;5009827;28;20049;-72
2020/12/15 21:36:28;;;;;;;8.48;3.80;;;19.30;52.60;;;;;;5009532;28;20060;-72
2020/12/15 21:38:56;;;;;;;5.05;2.80;;;19.40;52.60;;;;;;5009155;28;20050;-73
2020/12/15 21:41:22;;;;;;;7.05;3.72;;;19.40;52.60;;;;;;5008627;28;20137;-73
2020/12/15 21:43:50;;;;;;;5.18;3.05;;;19.40;52.50;;;;;;5007639;28;20606;-73
2020/12/15 21:46:21;;;;;;;9.55;4.10;;;19.40;52.50;;;;;;5009149;28;20056;-74
2020/12/15 21:48:48;;;;;;;5.18;3.30;;;19.40;52.20;;;;;;5008231;28;20053;-73
2020/12/15 21:51:15;;;;;;;6.03;3.25;;;19.30;52.10;;;;;;5009655;28;20053;-72
2020/12/15 21:53:42;;;;;;;4.30;3.20;;;19.30;52.10;;;;;;5010101;28;20124;-73
2020/12/15 21:56:08;;;;;;;5.85;3.22;;;19.30;52.10;;;;;;5010008;28;20069;-73
2020/12/15 21:58:35;;;;;;;3.80;2.95;;;19.30;52.10;;;;;;5009801;28;20056;-73
2020/12/15 22:01:01;;;;;;;4.25;3.10;;;19.30;52.10;;;;;;5009503;28;20054;-73
2020/12/15 22:03:28;;;;;;;4.97;2.97;;;19.40;52.20;;;;;;5013343;28;20045;-72
2020/12/15 22:05:54;;;;;;;3.58;3.00;;;19.40;52.10;;;;;;5013458;28;20057;-72
2020/12/15 22:08:20;;;;;;;3.88;2.90;;;19.40;51.90;;;;;;5012106;28;20045;-72
2020/12/15 22:10:47;;;;;;;4.45;3.00;;;19.40;52.00;;;;;;5012778;28;20054;-73
2020/12/15 22:13:16;;;;;;;4.13;3.03;;;19.40;51.90;;;;;;5013001;28;20545;-73
2020/12/15 22:15:42;;;;;;;6.15;3.35;;;19.40;51.90;;;;;;5012554;28;20061;-73
2020/12/15 22:18:08;;;;;;;5.40;3.38;;;19.40;51.80;;;;;;5012506;28;20093;-73
2020/12/15 22:20:35;;;;;;;5.10;3.35;;;19.40;51.80;;;;;;5012391;28;20053;-72
2020/12/15 22:23:02;;;;;;;5.00;3.35;;;19.50;51.80;;;;;;5012511;28;20073;-73
2020/12/15 22:25:28;;;;;;;5.60;3.33;;;19.50;51.80;;;;;;5012777;28;20064;-73
2020/12/15 22:27:54;;;;;;;4.32;3.17;;;19.50;51.70;;;;;;5012606;28;20053;-72
2020/12/15 22:30:21;;;;;;;6.93;3.60;;;19.50;51.60;;;;;;5013493;28;20482;-73
2020/12/15 22:32:47;;;;;;;6.32;3.92;;;19.60;52.20;;;;;;5012471;28;20450;-72
2020/12/15 22:35:14;;;;;;;5.38;3.40;;;19.60;51.50;;;;;;5012450;28;20100;-72
2020/12/15 22:37:43;;;;;;;5.15;2.97;;;19.60;51.50;;;;;;5010743;28;20050;-72
2020/12/15 22:40:10;;;;;;;7.40;3.53;;;19.60;51.40;;;;;;5012200;28;20054;-72
2020/12/15 22:42:36;;;;;;;5.93;3.17;;;19.70;51.40;;;;;;5012412;28;20584;-72
2020/12/15 22:45:03;;;;;;;6.15;3.35;;;19.70;51.40;;;;;;5011887;28;20048;-72
2020/12/15 22:47:30;;;;;;;7.57;3.85;;;19.70;51.30;;;;;;5012224;28;20129;-72
2020/12/15 22:49:56;;;;;;;5.10;3.47;;;19.70;51.20;;;;;;5011675;28;20120;-72
2020/12/15 22:52:23;;;;;;;6.00;3.50;;;19.70;51.10;;;;;;5011596;28;20053;-73
2020/12/15 22:54:49;;;;;;;5.20;3.70;;;19.80;51.20;;;;;;5012605;28;20129;-73
2020/12/15 22:57:16;;;;;;;4.57;3.30;;;19.70;51.00;;;;;;5012514;28;20064;-72
2020/12/15 22:59:42;;;;;;;7.03;3.65;;;19.80;51.00;;;;;;5011934;28;20058;-72
2020/12/15 23:02:08;;;;;;;3.55;3.10;;;19.80;51.00;;;;;;5011662;28;20198;-73
2020/12/15 23:04:35;;;;;;;5.70;3.50;;;19.80;51.00;;;;;;5010308;28;20046;-72
2020/12/15 23:07:01;;;;;;;4.47;3.28;;;19.90;51.00;;;;;;5011859;28;20049;-72
2020/12/15 23:09:30;;;;;;;7.07;3.85;;;19.80;50.80;;;;;;5011563;28;20123;-71
2020/12/15 23:11:56;;;;;;;7.28;3.90;;;19.90;50.90;;;;;;5011099;28;20050;-72
2020/12/15 23:14:22;;;;;;;4.90;3.40;;;19.90;50.70;;;;;;5011294;28;20057;-71
2020/12/15 23:16:49;;;;;;;5.15;3.85;;;19.80;50.70;;;;;;5010191;28;20104;-72
2020/12/15 23:19:16;;;;;;;5.18;3.83;;;19.80;50.70;;;;;;5011673;28;20042;-72
2020/12/15 23:21:56;;;;;;;5.97;3.65;;;19.80;50.60;;;;;;5011501;28;20058;-71
2020/12/15 23:24:23;;;;;;;6.85;3.17;;;19.80;50.50;;;;;;5011350;28;20042;-71
2020/12/15 23:26:49;;;;;;;5.35;3.70;;;19.80;50.70;;;;;;5011101;28;20233;-73
2020/12/15 23:29:17;;;;;;;7.43;4.00;;;19.80;50.50;;;;;;5011221;28;20077;-72
2020/12/15 23:31:48;;;;;;;4.50;3.45;;;20.00;50.50;;;;;;5010432;28;20046;-71
2020/12/15 23:34:15;;;;;;;4.85;4.03;;;19.70;50.30;;;;;;5010480;28;20050;-72
2020/12/15 23:36:42;;;;;;;5.70;4.00;;;19.70;50.30;;;;;;5010816;28;20050;-72
2020/12/15 23:39:08;;;;;;;5.78;4.15;;;19.80;50.40;;;;;;5009675;28;20414;-72
2020/12/15 23:41:35;;;;;;;5.28;3.70;;;19.80;50.30;;;;;;5009687;28;20533;-72
2020/12/15 23:44:01;;;;;;;5.43;3.72;;;19.80;50.30;;;;;;5010855;28;20418;-72
2020/12/15 23:46:28;;;;;;;6.97;4.70;;;19.80;50.30;;;;;;5010923;28;20053;-72
2020/12/15 23:48:54;;;;;;;6.05;4.82;;;19.80;50.20;;;;;;5008999;28;20049;-72
2020/12/15 23:51:21;;;;;;;6.03;4.45;;;19.80;50.10;;;;;;5010926;28;20053;-72
2020/12/15 23:53:47;;;;;;;5.97;4.80;;;19.80;50.20;;;;;;5010462;28;20045;-72
2020/12/15 23:56:14;;;;;;;6.57;4.53;;;19.90;50.10;;;;;;5010331;28;20144;-72
2020/12/15 23:58:40;;;;;;;7.10;5.15;;;19.90;50.10;;;;;;5010358;28;20061;-72
